createdAt,value
2023-03-03T00:02:11.013Z,5.47
2023-03-03T00:05:53.704Z,4.75
2023-03-03T00:09:35.608Z,4.28
2023-03-03T00:13:21.592Z,3.90
2023-03-03T00:17:34.422Z,4.18
2023-03-03T00:21:40.408Z,4.22
2023-03-03T00:25:34.190Z,3.28
2023-03-03T00:29:38.146Z,3.20
2023-03-03T00:33:43.263Z,4.35
2023-03-03T00:37:35.944Z,6.05
2023-03-03T00:41:25.233Z,4.90
2023-03-03T00:45:28.442Z,4.60
2023-03-03T00:49:25.948Z,4.18
2023-03-03T00:53:13.702Z,4.60
2023-03-03T00:56:55.612Z,4.28
2023-03-03T01:00:38.606Z,3.92
2023-03-03T01:04:22.486Z,3.80
2023-03-03T01:08:04.614Z,4.73
2023-03-03T01:11:52.710Z,4.28
2023-03-03T01:15:34.791Z,4.40
2023-03-03T01:19:17.749Z,4.77
2023-03-03T01:22:59.858Z,4.30
2023-03-03T01:26:41.812Z,4.00
2023-03-03T01:30:24.205Z,4.80
2023-03-03T01:34:07.350Z,4.57
2023-03-03T01:37:49.313Z,4.65
2023-03-03T01:41:35.162Z,4.47
2023-03-03T01:45:24.519Z,4.80
2023-03-03T01:49:29.171Z,5.32
2023-03-03T01:53:25.863Z,5.13
2023-03-03T01:57:16.423Z,4.03
2023-03-03T02:01:03.839Z,4.57
2023-03-03T02:04:46.321Z,4.63
2023-03-03T02:08:39.178Z,4.77
2023-03-03T02:12:26.150Z,4.38
2023-03-03T02:16:08.608Z,4.20
2023-03-03T02:20:22.176Z,3.67
2023-03-03T02:24:13.616Z,3.97
2023-03-03T02:27:57.235Z,4.10
2023-03-03T02:31:39.224Z,3.90
2023-03-03T02:35:32.158Z,4.07
2023-03-03T02:39:26.627Z,3.20
2023-03-03T02:43:10.402Z,3.85
2023-03-03T02:46:53.891Z,4.40
2023-03-03T02:50:35.850Z,3.80
2023-03-03T02:54:19.759Z,4.07
2023-03-03T02:58:01.663Z,4.30
2023-03-03T03:01:44.732Z,3.73
2023-03-03T03:05:26.673Z,4.20
2023-03-03T03:09:10.241Z,4.32
2023-03-03T03:12:52.951Z,4.03
2023-03-03T03:16:35.206Z,3.83
2023-03-03T03:20:17.525Z,3.97
2023-03-03T03:23:59.519Z,3.83
2023-03-03T03:27:41.854Z,3.75
2023-03-03T03:31:23.798Z,3.60
2023-03-03T03:35:06.211Z,3.80
2023-03-03T03:38:48.129Z,3.90
2023-03-03T03:42:30.109Z,4.10
2023-03-03T03:46:12.206Z,4.25
2023-03-03T03:49:54.204Z,4.30
2023-03-03T03:53:36.210Z,4.07
2023-03-03T03:57:18.212Z,4.47
2023-03-03T04:01:08.159Z,4.40
2023-03-03T04:04:50.119Z,3.65
2023-03-03T04:08:32.002Z,4.22
2023-03-03T04:12:13.941Z,4.40
2023-03-03T04:15:55.935Z,3.90
2023-03-03T04:19:37.936Z,4.70
2023-03-03T04:23:19.832Z,4.38
2023-03-03T04:27:02.059Z,4.33
2023-03-03T04:30:44.668Z,4.05
2023-03-03T04:34:26.875Z,4.40
2023-03-03T04:38:08.857Z,3.80
2023-03-03T04:41:50.881Z,3.78
2023-03-03T04:45:32.825Z,3.72
2023-03-03T04:49:14.796Z,3.80
2023-03-03T04:52:56.727Z,3.43
2023-03-03T04:56:38.702Z,3.20
2023-03-03T05:00:20.850Z,3.70
2023-03-03T05:04:03.042Z,3.17
2023-03-03T05:07:45.020Z,3.60
2023-03-03T05:11:27.034Z,3.55
2023-03-03T05:15:09.210Z,4.10
2023-03-03T05:18:51.340Z,3.80
2023-03-03T05:22:33.243Z,3.78
2023-03-03T05:26:15.329Z,3.92
2023-03-03T05:29:57.693Z,3.70
2023-03-03T05:33:39.687Z,4.45
2023-03-03T05:37:21.699Z,4.03
2023-03-03T05:41:04.185Z,3.70
2023-03-03T05:44:46.103Z,4.03
2023-03-03T05:48:28.598Z,3.90
2023-03-03T05:52:10.749Z,3.87
2023-03-03T05:55:52.737Z,4.03
2023-03-03T05:59:34.743Z,4.03
2023-03-03T06:03:17.207Z,4.55
2023-03-03T06:06:59.183Z,4.33
2023-03-03T06:10:43.196Z,4.43
2023-03-03T06:14:27.169Z,4.65
2023-03-03T06:18:09.758Z,4.63
2023-03-03T06:21:51.705Z,4.53
2023-03-03T06:25:35.833Z,5.07
2023-03-03T06:29:18.202Z,5.53
2023-03-03T06:33:00.166Z,4.60
2023-03-03T06:36:42.128Z,4.53
2023-03-03T06:40:24.100Z,4.65
2023-03-03T06:44:06.871Z,4.17
2023-03-03T06:47:49.250Z,4.38
2023-03-03T06:51:38.498Z,4.60
2023-03-03T06:55:23.944Z,4.57
2023-03-03T06:59:18.155Z,3.85
2023-03-03T07:03:02.907Z,3.05
2023-03-03T07:06:44.939Z,3.43
2023-03-03T07:10:28.451Z,3.42
2023-03-03T07:14:17.014Z,3.95
2023-03-03T07:17:59.867Z,3.75
2023-03-03T07:21:42.032Z,4.00
2023-03-03T07:25:32.269Z,4.07
2023-03-03T07:29:28.487Z,3.60
2023-03-03T07:33:25.079Z,3.93
2023-03-03T07:37:41.472Z,3.70
2023-03-03T07:41:24.165Z,3.80
2023-03-03T07:45:25.451Z,3.57
2023-03-03T07:49:22.906Z,3.45
2023-03-03T07:53:29.643Z,3.10
2023-03-03T07:57:17.712Z,2.95
2023-03-03T08:01:40.588Z,3.07
2023-03-03T08:05:41.865Z,3.30
2023-03-03T08:09:46.276Z,2.70
2023-03-03T08:13:34.462Z,2.50
2023-03-03T08:17:34.124Z,2.58
2023-03-03T08:21:21.422Z,2.60
2023-03-03T08:25:03.410Z,2.90
2023-03-03T08:28:45.818Z,2.80
2023-03-03T08:32:27.888Z,1.98
2023-03-03T08:36:10.461Z,3.00
2023-03-03T08:39:52.393Z,2.80
2023-03-03T08:43:35.177Z,3.00
2023-03-03T08:47:17.138Z,3.03
2023-03-03T08:50:59.434Z,3.13
2023-03-03T08:54:44.383Z,3.47
2023-03-03T08:58:35.010Z,3.42
2023-03-03T09:02:17.995Z,3.47
2023-03-03T09:06:00.017Z,2.92
2023-03-03T09:09:41.946Z,3.58
2023-03-03T09:13:23.954Z,3.42
2023-03-03T09:17:23.964Z,3.30
2023-03-03T09:21:35.270Z,3.50
2023-03-03T09:25:37.698Z,3.22
2023-03-03T09:29:27.686Z,3.40
2023-03-03T09:33:37.769Z,2.95
2023-03-03T09:37:40.514Z,2.90
2023-03-03T09:41:58.200Z,3.10
2023-03-03T09:46:04.814Z,3.10
2023-03-03T09:50:24.929Z,3.03
2023-03-03T09:54:22.143Z,2.65
2023-03-03T09:58:12.828Z,2.57
2023-03-03T10:02:17.539Z,2.83
2023-03-03T10:06:33.766Z,2.60
2023-03-03T10:10:29.570Z,2.60
2023-03-03T10:14:20.577Z,1.60
2023-03-03T10:18:12.949Z,2.50
2023-03-03T10:22:12.554Z,2.60
2023-03-03T10:26:29.028Z,2.00
2023-03-03T10:30:33.248Z,2.17
2023-03-03T10:34:23.764Z,2.08
2023-03-03T10:38:29.001Z,1.90
2023-03-03T10:42:15.547Z,2.17
2023-03-03T10:46:33.907Z,2.20
2023-03-03T10:50:31.952Z,2.10
2023-03-03T10:54:43.605Z,2.67
2023-03-03T10:58:39.590Z,2.67
2023-03-03T11:02:42.772Z,2.30
2023-03-03T11:06:30.648Z,1.95
2023-03-03T11:10:30.372Z,1.60
2023-03-03T11:14:26.990Z,2.28
2023-03-03T11:18:25.812Z,1.97
2023-03-03T11:22:16.816Z,2.65
2023-03-03T11:26:20.299Z,2.20
2023-03-03T11:30:34.544Z,1.87
2023-03-03T11:34:38.452Z,2.50
2023-03-03T11:38:41.634Z,1.92
2023-03-03T11:42:28.714Z,2.53
2023-03-03T11:46:17.184Z,2.25
2023-03-03T11:50:16.183Z,2.33
2023-03-03T11:54:05.744Z,2.05
2023-03-03T11:58:12.590Z,2.00
2023-03-03T12:02:10.244Z,3.00
2023-03-03T12:06:06.340Z,3.30
2023-03-03T12:10:19.589Z,3.30
2023-03-03T12:19:26.644Z,2.75
2023-03-03T12:27:45.996Z,3.47
2023-03-03T12:44:39.422Z,2.90
2023-03-03T12:53:31.000Z,2.67
2023-03-03T13:02:37.005Z,2.90
2023-03-03T13:07:17.724Z,3.00
2023-03-03T13:11:45.693Z,2.83
2023-03-03T13:20:34.486Z,2.50
2023-03-03T13:25:06.491Z,2.50
2023-03-03T13:37:27.153Z,2.07
2023-03-03T13:46:06.154Z,2.47
2023-03-03T13:50:38.820Z,2.63
2023-03-03T13:55:06.026Z,2.30
2023-03-03T14:02:16.423Z,2.65
2023-03-03T14:11:19.032Z,1.38
2023-03-03T14:24:47.556Z,1.67
2023-03-03T14:29:15.769Z,2.00
2023-03-03T14:37:54.586Z,1.67
2023-03-03T14:41:41.988Z,1.85
2023-03-03T14:45:48.811Z,1.83
2023-03-03T14:49:36.849Z,2.33
2023-03-03T14:53:40.766Z,1.95
2023-03-03T15:15:39.000Z,1.80
2023-03-03T15:19:57.813Z,1.80
2023-03-03T15:24:39.312Z,1.73
2023-03-03T15:28:58.583Z,1.55
2023-03-03T17:52:02.528Z,3.10
2023-03-03T17:56:14.351Z,3.45
2023-03-03T18:00:22.473Z,3.55
2023-03-03T18:04:32.386Z,3.80
2023-03-03T18:08:39.085Z,4.45
2023-03-03T18:12:26.897Z,4.38
2023-03-03T18:16:30.800Z,5.20
2023-03-03T18:20:34.684Z,4.20
2023-03-03T18:24:26.112Z,4.40
2023-03-03T18:28:08.344Z,3.77
2023-03-03T18:31:53.678Z,4.20
2023-03-03T18:35:45.886Z,4.00
2023-03-03T18:39:46.527Z,5.47
2023-03-03T18:43:45.253Z,4.83
2023-03-03T18:48:30.131Z,5.95
2023-03-03T18:52:37.348Z,5.57
2023-03-03T18:56:42.733Z,5.30
2023-03-03T19:00:34.873Z,4.53
2023-03-03T19:04:35.029Z,5.70
2023-03-03T19:08:31.858Z,5.43
2023-03-03T19:12:17.002Z,5.82
2023-03-03T19:16:29.226Z,5.80
2023-03-03T19:20:20.332Z,5.22
2023-03-03T19:24:28.808Z,5.20
2023-03-03T19:28:23.896Z,6.03
2023-03-03T19:32:28.590Z,5.70
2023-03-03T19:36:24.771Z,5.83
2023-03-03T19:40:25.330Z,5.80
2023-03-03T19:44:07.626Z,5.63
2023-03-03T19:48:20.878Z,6.33
2023-03-03T19:52:06.253Z,5.70
2023-03-03T19:56:21.670Z,6.80
2023-03-03T20:00:33.087Z,5.55
2023-03-03T20:04:42.371Z,5.97
2023-03-03T20:09:07.965Z,5.30
2023-03-03T20:13:23.654Z,5.20
2023-03-03T20:17:33.537Z,5.73
2023-03-03T20:21:49.534Z,4.97
2023-03-03T20:26:14.865Z,6.25
2023-03-03T20:30:08.846Z,5.73
2023-03-03T20:34:22.087Z,6.15
2023-03-03T20:38:07.544Z,5.20
2023-03-03T20:42:11.566Z,5.43
2023-03-03T20:46:15.372Z,4.33
2023-03-03T20:50:28.159Z,5.45
2023-03-03T20:54:35.212Z,6.15
2023-03-03T20:58:30.159Z,5.67
2023-03-03T21:02:34.243Z,5.30
2023-03-03T21:06:19.966Z,5.72
2023-03-03T21:10:16.738Z,5.73
2023-03-03T21:14:10.411Z,5.55
2023-03-03T21:17:52.918Z,6.22
2023-03-03T21:21:42.632Z,5.82
2023-03-03T21:25:45.981Z,5.67
2023-03-03T21:29:29.550Z,5.65
2023-03-03T21:33:11.915Z,5.20
2023-03-03T21:36:55.587Z,6.73
2023-03-03T21:40:38.081Z,6.28
2023-03-03T21:44:30.641Z,6.55
2023-03-03T21:48:17.763Z,5.27
2023-03-03T21:52:01.091Z,5.40
2023-03-03T21:55:49.982Z,5.38
2023-03-03T21:59:32.176Z,5.60
2023-03-03T22:03:15.722Z,5.00
2023-03-03T22:06:58.626Z,5.20
2023-03-03T22:10:45.466Z,5.00
2023-03-03T22:14:27.802Z,5.60
2023-03-03T22:18:09.970Z,5.55
2023-03-03T22:21:52.408Z,6.05
2023-03-03T22:25:34.500Z,6.37
2023-03-03T22:29:17.537Z,6.20
2023-03-03T22:32:59.633Z,6.95
2023-03-03T22:36:41.659Z,5.63
2023-03-03T22:40:23.845Z,5.90
2023-03-03T22:44:06.115Z,5.60
2023-03-03T22:47:48.136Z,5.55
2023-03-03T22:51:30.112Z,6.13
2023-03-03T22:55:12.248Z,5.55
2023-03-03T22:58:54.303Z,6.25
2023-03-03T23:02:36.277Z,5.93
2023-03-03T23:06:18.379Z,5.10
2023-03-03T23:10:00.384Z,5.78
2023-03-03T23:13:42.639Z,5.35
2023-03-03T23:17:25.050Z,5.80
2023-03-03T23:21:07.015Z,5.93
2023-03-03T23:24:48.974Z,5.80
2023-03-03T23:28:30.981Z,6.90
2023-03-03T23:32:13.232Z,6.55
2023-03-03T23:35:55.355Z,6.75
2023-03-03T23:39:37.355Z,7.27
2023-03-03T23:43:19.347Z,7.03
2023-03-03T23:47:01.494Z,6.45
2023-03-03T23:50:43.454Z,6.75
2023-03-03T23:54:25.785Z,6.33
2023-03-03T23:58:08.188Z,6.90
